createdAt,value
2022-12-22T00:01:59.811Z,1.85
2022-12-22T00:04:45.397Z,1.98
2022-12-22T00:07:30.862Z,1.40
2022-12-22T00:10:16.120Z,1.08
2022-12-22T00:13:01.322Z,1.38
2022-12-22T00:15:48.724Z,1.63
2022-12-22T00:18:34.922Z,1.70
2022-12-22T00:21:20.536Z,1.67
2022-12-22T00:24:06.189Z,1.75
2022-12-22T00:26:52.925Z,1.52
2022-12-22T00:29:38.874Z,1.80
2022-12-22T00:32:24.639Z,1.30
2022-12-22T00:35:10.748Z,1.30
2022-12-22T00:37:56.479Z,1.70
2022-12-22T00:40:45.888Z,1.50
2022-12-22T00:43:32.006Z,1.48
2022-12-22T00:46:19.788Z,1.50
2022-12-22T00:49:05.427Z,1.35
2022-12-22T00:51:51.645Z,1.35
2022-12-22T00:54:38.272Z,1.25
2022-12-22T00:57:23.544Z,1.38
2022-12-22T01:00:09.738Z,1.20
2022-12-22T01:02:54.976Z,1.00
2022-12-22T01:05:40.763Z,1.42
2022-12-22T01:08:27.927Z,1.90
2022-12-22T01:11:13.323Z,1.40
2022-12-22T01:13:58.530Z,1.30
2022-12-22T01:16:43.804Z,1.77
2022-12-22T01:19:29.460Z,1.20
2022-12-22T01:22:16.039Z,1.30
2022-12-22T01:25:02.337Z,1.10
2022-12-22T01:27:47.537Z,1.30
2022-12-22T01:30:33.107Z,1.35
2022-12-22T01:33:18.499Z,1.30
2022-12-22T01:36:03.740Z,1.10
2022-12-22T01:38:48.894Z,1.10
2022-12-22T01:41:38.678Z,1.00
2022-12-22T01:44:34.323Z,1.00
2022-12-22T01:47:57.942Z,1.00
2022-12-22T01:50:50.543Z,0.97
2022-12-22T01:53:43.472Z,1.00
2022-12-22T01:56:29.402Z,1.20
2022-12-22T01:59:18.085Z,1.00
2022-12-22T02:02:04.146Z,1.00
2022-12-22T02:04:54.241Z,1.00
2022-12-22T02:07:51.510Z,1.10
2022-12-22T02:11:01.661Z,1.10
2022-12-22T02:13:58.649Z,0.93
2022-12-22T02:17:05.751Z,1.13
2022-12-22T02:20:17.027Z,1.08
2022-12-22T02:23:02.467Z,1.00
2022-12-22T02:25:56.318Z,1.10
2022-12-22T02:28:43.024Z,1.00
2022-12-22T02:31:28.260Z,1.00
2022-12-22T02:34:13.920Z,1.13
2022-12-22T02:37:09.526Z,1.13
2022-12-22T02:40:09.220Z,1.10
2022-12-22T02:43:07.653Z,1.10
2022-12-22T02:46:14.337Z,1.10
2022-12-22T02:49:05.438Z,1.05
2022-12-22T02:51:57.926Z,1.00
2022-12-22T02:54:43.775Z,1.00
2022-12-22T02:57:29.049Z,1.13
2022-12-22T03:00:14.567Z,1.00
2022-12-22T03:02:59.951Z,1.10
2022-12-22T03:05:45.040Z,1.00
2022-12-22T03:08:30.229Z,1.00
2022-12-22T03:11:15.719Z,1.13
2022-12-22T03:14:00.932Z,1.00
2022-12-22T03:16:47.548Z,1.00
2022-12-22T03:19:32.787Z,1.00
2022-12-22T03:22:18.000Z,1.00
2022-12-22T03:25:03.604Z,1.05
2022-12-22T03:27:30.712Z,1.15
2022-12-22T03:29:57.368Z,0.85
2022-12-22T03:32:24.125Z,1.13
2022-12-22T03:34:50.770Z,1.10
2022-12-22T03:37:17.427Z,1.00
2022-12-22T03:39:44.084Z,1.05
2022-12-22T03:42:32.443Z,1.10
2022-12-22T03:45:22.248Z,0.80
2022-12-22T03:47:48.992Z,0.90
2022-12-22T03:50:15.784Z,1.10
2022-12-22T03:52:42.664Z,1.05
2022-12-22T03:55:09.591Z,0.98
2022-12-22T03:57:36.371Z,0.90
2022-12-22T04:00:04.217Z,1.10
2022-12-22T04:02:31.025Z,1.10
2022-12-22T04:04:57.764Z,1.23
2022-12-22T04:07:24.458Z,1.00
2022-12-22T04:10:09.715Z,1.15
2022-12-22T04:12:54.649Z,1.10
2022-12-22T04:15:22.430Z,1.00
2022-12-22T04:17:49.331Z,1.00
2022-12-22T04:20:16.028Z,0.90
2022-12-22T04:22:42.725Z,1.17
2022-12-22T04:25:09.739Z,0.98
2022-12-22T04:27:36.505Z,1.17
2022-12-22T04:30:04.815Z,1.00
2022-12-22T04:32:31.462Z,1.00
2022-12-22T04:34:58.185Z,1.10
2022-12-22T04:37:24.877Z,1.00
2022-12-22T04:39:51.532Z,1.00
2022-12-22T04:42:18.205Z,1.10
2022-12-22T04:44:45.001Z,0.90
2022-12-22T04:47:11.684Z,0.80
2022-12-22T04:49:38.436Z,1.00
2022-12-22T04:52:05.367Z,1.00
2022-12-22T04:54:32.039Z,1.05
2022-12-22T04:56:59.636Z,1.00
2022-12-22T04:59:26.528Z,1.00
2022-12-22T05:01:53.329Z,1.20
2022-12-22T05:04:23.656Z,1.10
2022-12-22T05:06:50.694Z,1.20
2022-12-22T05:09:17.405Z,1.10
2022-12-22T05:11:44.098Z,0.90
2022-12-22T05:14:10.720Z,1.00
2022-12-22T05:16:37.420Z,1.08
2022-12-22T05:19:04.170Z,1.00
2022-12-22T05:21:30.845Z,1.08
2022-12-22T05:23:58.696Z,0.90
2022-12-22T05:26:25.375Z,1.05
2022-12-22T05:28:52.655Z,1.00
2022-12-22T05:31:24.631Z,1.10
2022-12-22T05:33:52.019Z,1.00
2022-12-22T05:36:19.252Z,1.10
2022-12-22T05:38:45.944Z,1.00
2022-12-22T05:41:12.879Z,1.10
2022-12-22T05:43:39.857Z,1.00
2022-12-22T05:46:09.254Z,1.00
2022-12-22T05:48:39.092Z,0.93
2022-12-22T05:51:08.093Z,1.00
2022-12-22T05:53:34.815Z,1.00
2022-12-22T05:56:01.613Z,1.10
2022-12-22T05:58:28.304Z,0.98
2022-12-22T06:00:59.053Z,1.00
2022-12-22T06:03:27.144Z,1.00
2022-12-22T06:05:54.500Z,1.10
2022-12-22T06:08:21.813Z,1.00
2022-12-22T06:10:48.687Z,1.30
2022-12-22T06:13:15.507Z,1.00
2022-12-22T06:15:42.204Z,1.20
2022-12-22T06:18:08.945Z,0.98
2022-12-22T06:20:35.663Z,1.00
2022-12-22T06:23:02.339Z,1.10
2022-12-22T06:25:29.061Z,0.90
2022-12-22T06:28:05.310Z,1.00
2022-12-22T06:30:33.785Z,0.90
2022-12-22T06:33:01.288Z,0.80
2022-12-22T06:35:28.273Z,1.00
2022-12-22T06:37:55.036Z,1.00
2022-12-22T06:40:21.752Z,1.10
2022-12-22T06:43:08.957Z,0.90
2022-12-22T06:45:37.833Z,0.98
2022-12-22T06:48:05.555Z,1.00
2022-12-22T06:50:32.556Z,1.10
2022-12-22T06:52:59.281Z,1.00
2022-12-22T06:55:26.057Z,1.00
2022-12-22T06:57:53.155Z,1.20
2022-12-22T07:00:20.266Z,1.00
2022-12-22T07:02:47.166Z,0.95
2022-12-22T07:05:15.719Z,1.00
2022-12-22T07:07:42.551Z,1.10
2022-12-22T07:10:09.577Z,1.00
2022-12-22T07:12:36.295Z,0.93
2022-12-22T07:15:03.233Z,1.10
2022-12-22T07:17:29.952Z,1.38
2022-12-22T07:19:56.731Z,1.08
2022-12-22T07:22:30.389Z,1.10
2022-12-22T07:24:58.688Z,1.00
2022-12-22T07:27:25.499Z,0.90
2022-12-22T07:29:55.058Z,1.00
2022-12-22T07:32:21.911Z,1.40
2022-12-22T07:34:48.633Z,1.17
2022-12-22T07:37:15.301Z,1.10
2022-12-22T07:39:42.084Z,1.10
2022-12-22T07:42:30.915Z,1.00
2022-12-22T07:44:58.007Z,1.10
2022-12-22T07:47:27.429Z,1.17
2022-12-22T07:50:16.786Z,1.20
2022-12-22T07:52:43.496Z,1.20
2022-12-22T07:55:10.311Z,1.05
2022-12-22T07:57:37.111Z,1.10
2022-12-22T08:00:04.387Z,1.13
2022-12-22T08:02:36.859Z,1.15
2022-12-22T08:05:06.776Z,1.35
2022-12-22T08:07:33.536Z,1.48
2022-12-22T08:10:00.355Z,1.40
2022-12-22T08:12:28.167Z,1.20
2022-12-22T08:14:54.937Z,1.10
2022-12-22T08:17:21.673Z,1.20
2022-12-22T08:19:49.018Z,1.90
2022-12-22T08:22:15.729Z,1.10
2022-12-22T08:24:42.436Z,1.42
2022-12-22T08:27:14.870Z,1.40
2022-12-22T08:29:48.673Z,1.30
2022-12-22T08:32:16.305Z,1.13
2022-12-22T08:34:43.528Z,1.15
2022-12-22T08:37:15.453Z,1.25
2022-12-22T08:39:44.588Z,1.58
2022-12-22T08:42:16.433Z,1.30
2022-12-22T08:44:43.776Z,1.30
2022-12-22T08:47:16.664Z,1.67
2022-12-22T08:49:44.063Z,1.63
2022-12-22T08:52:17.832Z,1.40
2022-12-22T08:54:45.435Z,1.20
2022-12-22T08:57:12.280Z,1.20
2022-12-22T08:59:38.979Z,1.40
2022-12-22T09:02:06.024Z,1.90
2022-12-22T09:04:33.887Z,1.20
2022-12-22T09:07:02.743Z,1.15
2022-12-22T09:09:40.737Z,1.42
2022-12-22T09:12:08.089Z,1.63
2022-12-22T09:14:34.849Z,1.30
2022-12-22T09:17:01.693Z,1.40
2022-12-22T09:19:28.573Z,1.20
2022-12-22T09:21:55.475Z,1.77
2022-12-22T09:24:22.252Z,1.15
2022-12-22T09:26:49.028Z,1.52
2022-12-22T09:29:16.088Z,1.73
2022-12-22T09:31:43.590Z,1.58
2022-12-22T09:34:16.886Z,1.45
2022-12-22T09:36:44.731Z,1.30
2022-12-22T09:39:11.512Z,1.60
2022-12-22T09:41:53.911Z,1.42
2022-12-22T09:44:40.825Z,1.58
2022-12-22T09:47:28.854Z,1.30
2022-12-22T09:49:57.639Z,2.08
2022-12-22T09:52:35.655Z,1.38
2022-12-22T09:55:03.669Z,1.27
2022-12-22T09:57:32.946Z,1.52
2022-12-22T10:00:15.437Z,1.50
2022-12-22T10:03:27.093Z,1.23
2022-12-22T10:06:33.671Z,1.25
2022-12-22T10:09:50.717Z,3.15
2022-12-22T10:12:24.386Z,1.30
2022-12-22T10:14:53.635Z,1.27
2022-12-22T10:17:34.088Z,1.60
2022-12-22T10:20:19.575Z,1.38
2022-12-22T10:22:54.456Z,1.30
2022-12-22T10:28:37.224Z,1.35
2022-12-22T10:31:25.634Z,1.45
2022-12-22T10:33:55.961Z,1.50
2022-12-22T10:36:30.341Z,1.55
2022-12-22T10:38:59.764Z,1.60
2022-12-22T10:41:30.963Z,1.60
2022-12-22T10:44:06.275Z,1.45
2022-12-22T10:46:39.696Z,2.55
2022-12-22T10:49:20.689Z,1.52
2022-12-22T10:51:52.283Z,1.77
2022-12-22T10:54:31.654Z,1.35
2022-12-22T10:57:05.260Z,1.55
2022-12-22T10:59:34.664Z,1.60
2022-12-22T11:02:21.865Z,1.42
2022-12-22T11:04:51.487Z,1.92
2022-12-22T11:07:19.046Z,1.60
2022-12-22T11:09:46.045Z,1.92
2022-12-22T11:12:31.755Z,1.67
2022-12-22T11:15:04.898Z,1.65
2022-12-22T11:17:44.652Z,1.42
2022-12-22T11:20:29.751Z,1.58
2022-12-22T11:23:04.170Z,1.33
2022-12-22T11:25:46.932Z,1.65
2022-12-22T11:28:26.792Z,1.95
2022-12-22T11:31:08.791Z,1.50
2022-12-22T11:34:02.628Z,2.28
2022-12-22T11:36:51.641Z,1.45
2022-12-22T11:39:39.516Z,1.92
2022-12-22T11:42:26.570Z,2.13
2022-12-22T11:44:56.006Z,1.80
2022-12-22T11:47:41.723Z,2.00
2022-12-22T11:51:00.834Z,1.92
2022-12-22T11:53:58.873Z,1.63
2022-12-22T11:56:31.418Z,1.73
2022-12-22T11:59:30.747Z,1.48
2022-12-22T12:02:12.892Z,1.95
2022-12-22T12:04:48.857Z,1.80
2022-12-22T12:07:26.568Z,1.95
2022-12-22T12:10:35.660Z,1.88
2022-12-22T12:13:26.387Z,1.52
2022-12-22T12:16:18.713Z,1.65
2022-12-22T12:19:10.116Z,2.63
2022-12-22T12:21:50.192Z,1.60
2022-12-22T12:24:38.928Z,2.25
2022-12-22T12:27:17.927Z,1.80
2022-12-22T12:30:13.429Z,1.58
2022-12-22T12:32:58.521Z,1.77
2022-12-22T12:35:54.779Z,1.60
2022-12-22T12:39:06.965Z,2.65
2022-12-22T12:41:33.030Z,1.80
2022-12-22T12:44:06.470Z,1.60
2022-12-22T12:46:55.606Z,1.40
2022-12-22T12:49:34.699Z,1.70
2022-12-22T12:52:12.807Z,1.42
2022-12-22T12:54:44.529Z,1.83
2022-12-22T12:57:47.144Z,1.65
2022-12-22T13:00:33.670Z,1.58
2022-12-22T13:03:25.255Z,1.88
2022-12-22T13:06:01.582Z,2.08
2022-12-22T13:08:53.296Z,1.30
2022-12-22T13:14:59.329Z,1.60
2022-12-22T13:17:54.369Z,2.10
2022-12-22T13:20:35.954Z,2.10
2022-12-22T13:23:10.464Z,1.80
2022-12-22T13:25:49.367Z,1.52
2022-12-22T13:28:20.031Z,1.70
2022-12-22T13:30:54.410Z,2.20
2022-12-22T14:01:10.171Z,2.10
2022-12-22T14:04:00.709Z,2.17
2022-12-22T14:06:39.314Z,2.13
2022-12-22T14:09:27.867Z,2.00
2022-12-22T14:12:00.832Z,1.90
2022-12-22T14:14:36.434Z,2.47
2022-12-22T14:17:03.629Z,2.17
2022-12-22T14:19:34.220Z,2.22
2022-12-22T14:22:14.908Z,2.95
2022-12-22T14:24:54.796Z,2.30
2022-12-22T14:27:36.276Z,2.05
2022-12-22T14:30:06.841Z,2.47
2022-12-22T14:32:38.024Z,2.70
2022-12-22T14:35:25.895Z,2.40
2022-12-22T14:38:22.337Z,2.25
2022-12-22T14:40:54.613Z,2.30
2022-12-22T14:43:27.139Z,2.55
2022-12-22T14:46:05.105Z,3.35
2022-12-22T14:48:45.762Z,2.78
2022-12-22T14:51:20.173Z,2.42
2022-12-22T14:53:59.661Z,3.63
2022-12-22T14:56:28.074Z,2.80
2022-12-22T14:59:11.186Z,2.80
2022-12-22T15:01:38.614Z,3.55
2022-12-22T15:04:08.409Z,3.00
2022-12-22T15:06:40.931Z,3.33
2022-12-22T15:09:13.645Z,3.28
2022-12-22T15:11:42.716Z,4.40
2022-12-22T15:14:20.298Z,3.45
2022-12-22T15:16:47.313Z,3.63
2022-12-22T15:19:22.584Z,3.97
2022-12-22T15:21:51.384Z,2.65
2022-12-22T15:24:19.206Z,2.70
2022-12-22T15:26:46.752Z,3.20
2022-12-22T15:29:13.874Z,2.80
2022-12-22T15:31:42.821Z,2.60
2022-12-22T15:34:19.195Z,3.08
2022-12-22T15:36:45.874Z,2.63
2022-12-22T15:39:15.112Z,3.20
2022-12-22T15:41:42.181Z,3.67
2022-12-22T15:44:09.081Z,3.33
2022-12-22T15:46:36.471Z,3.35
2022-12-22T15:49:03.583Z,2.47
2022-12-22T15:51:32.255Z,4.03
2022-12-22T15:54:00.173Z,4.40
2022-12-22T15:56:32.475Z,3.65
2022-12-22T15:59:01.719Z,3.20
2022-12-22T16:01:28.625Z,3.15
2022-12-22T16:03:56.584Z,2.38
2022-12-22T16:06:23.396Z,3.13
2022-12-22T16:08:53.228Z,2.58
2022-12-22T16:11:20.432Z,4.07
2022-12-22T16:13:49.441Z,2.60
2022-12-22T16:16:16.574Z,2.60
2022-12-22T16:18:43.463Z,3.35
2022-12-22T16:21:19.968Z,3.40
2022-12-22T16:23:49.658Z,2.42
2022-12-22T16:26:20.386Z,2.72
2022-12-22T16:28:47.316Z,2.00
2022-12-22T16:31:25.234Z,2.88
2022-12-22T16:33:52.464Z,2.88
2022-12-22T16:36:19.508Z,3.97
2022-12-22T16:38:47.809Z,3.38
2022-12-22T16:41:22.157Z,3.00
2022-12-22T16:46:37.976Z,2.55
2022-12-22T16:49:08.695Z,1.90
2022-12-22T16:51:40.345Z,2.03
2022-12-22T16:54:07.210Z,2.72
2022-12-22T16:56:35.452Z,2.60
2022-12-22T16:59:04.729Z,2.90
2022-12-22T17:01:39.636Z,3.47
2022-12-22T17:04:13.743Z,2.33
2022-12-22T17:06:41.504Z,2.78
2022-12-22T17:09:13.754Z,2.75
2022-12-22T17:11:40.628Z,2.37
2022-12-22T17:14:29.246Z,3.00
2022-12-22T17:16:56.185Z,2.90
2022-12-22T17:19:23.416Z,3.35
2022-12-22T17:21:51.622Z,2.38
2022-12-22T17:24:27.468Z,2.22
2022-12-22T17:26:55.598Z,2.47
2022-12-22T17:29:24.342Z,2.60
2022-12-22T17:31:52.259Z,2.08
2022-12-22T17:34:21.632Z,2.90
2022-12-22T17:36:49.649Z,2.35
2022-12-22T17:39:19.852Z,2.10
2022-12-22T17:41:54.039Z,2.20
2022-12-22T17:44:25.052Z,2.42
2022-12-22T17:46:52.499Z,3.15
2022-12-22T17:49:22.401Z,2.38
2022-12-22T17:51:50.269Z,1.90
2022-12-22T17:54:27.795Z,1.60
2022-12-22T17:57:00.941Z,1.83
2022-12-22T18:01:54.690Z,2.70
2022-12-22T18:04:22.817Z,2.42
2022-12-22T18:06:50.060Z,2.58
2022-12-22T18:09:23.795Z,1.98
2022-12-22T18:11:51.224Z,2.55
2022-12-22T18:14:21.094Z,2.33
2022-12-22T18:16:47.914Z,2.60
2022-12-22T18:19:14.635Z,2.50
2022-12-22T18:21:44.688Z,2.50
2022-12-22T18:24:20.013Z,3.90
2022-12-22T18:26:47.752Z,2.42
2022-12-22T18:29:16.493Z,2.47
2022-12-22T18:31:44.445Z,8.25
2022-12-22T18:34:12.330Z,3.00
2022-12-22T18:36:40.440Z,3.60
2022-12-22T18:39:17.446Z,3.05
2022-12-22T18:41:44.666Z,2.35
2022-12-22T18:44:20.724Z,3.17
2022-12-22T18:46:48.818Z,2.72
2022-12-22T18:49:16.872Z,17.30
2022-12-22T18:51:44.867Z,9.55
2022-12-22T18:54:25.315Z,4.90
2022-12-22T18:56:52.958Z,4.05
2022-12-22T18:59:25.776Z,4.63
2022-12-22T19:01:52.930Z,6.03
2022-12-22T19:04:20.183Z,5.32
2022-12-22T19:06:47.573Z,5.78
2022-12-22T19:09:16.374Z,8.70
2022-12-22T19:11:43.960Z,5.38
2022-12-22T19:14:18.693Z,4.03
2022-12-22T19:16:47.522Z,3.80
2022-12-22T19:19:19.303Z,2.90
2022-12-22T19:21:49.813Z,3.22
2022-12-22T19:24:17.083Z,4.22
2022-12-22T19:26:43.976Z,3.45
2022-12-22T19:29:14.022Z,3.78
2022-12-22T19:31:41.567Z,4.68
2022-12-22T19:34:17.921Z,2.80
2022-12-22T19:36:45.620Z,3.38
2022-12-22T19:39:12.521Z,5.53
2022-12-22T19:41:47.571Z,3.20
2022-12-22T19:44:26.377Z,6.47
2022-12-22T19:46:54.777Z,3.80
2022-12-22T19:52:16.620Z,10.02
2022-12-22T19:54:43.441Z,7.68
2022-12-22T19:57:18.359Z,6.57
2022-12-22T19:59:48.957Z,6.18
2022-12-22T20:02:27.826Z,8.27
2022-12-22T20:04:55.732Z,6.35
2022-12-22T20:07:25.225Z,3.72
2022-12-22T20:09:52.781Z,11.32
2022-12-22T20:12:28.691Z,10.23
2022-12-22T20:14:55.413Z,9.25
2022-12-22T20:17:22.169Z,5.50
2022-12-22T20:19:48.924Z,4.65
2022-12-22T20:22:17.249Z,4.07
2022-12-22T20:24:46.207Z,3.10
2022-12-22T20:27:39.337Z,3.50
2022-12-22T20:30:06.681Z,2.55
2022-12-22T20:32:33.435Z,3.25
2022-12-22T20:35:00.211Z,2.70
2022-12-22T20:37:29.843Z,2.65
2022-12-22T20:39:56.516Z,2.30
2022-12-22T20:42:24.207Z,3.20
2022-12-22T20:45:02.369Z,5.55
2022-12-22T20:47:30.468Z,3.53
2022-12-22T20:49:57.124Z,3.00
2022-12-22T20:52:23.788Z,2.90
2022-12-22T20:54:50.587Z,3.20
2022-12-22T20:57:17.290Z,3.63
2022-12-22T20:59:44.505Z,2.35
2022-12-22T21:02:22.834Z,2.00
2022-12-22T21:04:49.920Z,1.90
2022-12-22T21:07:17.129Z,2.80
2022-12-22T21:09:44.094Z,2.20
2022-12-22T21:12:10.775Z,3.47
2022-12-22T21:14:37.495Z,3.25
2022-12-22T21:17:04.931Z,2.92
2022-12-22T21:19:31.765Z,2.92
2022-12-22T21:21:58.646Z,2.75
2022-12-22T21:24:25.518Z,2.13
2022-12-22T21:26:55.554Z,2.90
2022-12-22T21:29:25.387Z,2.75
2022-12-22T21:31:52.425Z,2.20
2022-12-22T21:34:20.892Z,2.63
2022-12-22T21:36:53.743Z,2.70
2022-12-22T21:39:41.736Z,2.60
2022-12-22T21:42:19.788Z,3.10
2022-12-22T21:44:46.915Z,3.35
2022-12-22T21:47:16.730Z,3.13
2022-12-22T21:49:43.675Z,4.03
2022-12-22T21:52:10.345Z,2.63
2022-12-22T21:54:37.080Z,3.08
2022-12-22T21:57:03.915Z,2.90
2022-12-22T21:59:30.783Z,3.08
2022-12-22T22:01:57.638Z,3.22
2022-12-22T22:04:25.137Z,3.08
2022-12-22T22:06:51.868Z,3.08
2022-12-22T22:09:18.582Z,2.85
2022-12-22T22:12:03.915Z,2.30
2022-12-22T22:14:30.704Z,2.28
2022-12-22T22:16:57.359Z,3.03
2022-12-22T22:19:24.035Z,3.50
2022-12-22T22:21:50.695Z,3.53
2022-12-22T22:24:17.419Z,3.25
2022-12-22T22:26:49.294Z,2.80
2022-12-22T22:29:16.159Z,2.30
2022-12-22T22:31:43.014Z,2.58
2022-12-22T22:34:09.787Z,3.72
2022-12-22T22:36:36.443Z,2.83
2022-12-22T22:39:03.574Z,2.22
2022-12-22T22:41:35.245Z,2.65
2022-12-22T22:44:04.515Z,3.97
2022-12-22T22:46:31.213Z,3.22
2022-12-22T22:48:58.805Z,2.22
2022-12-22T22:51:25.826Z,2.53
2022-12-22T22:53:52.523Z,2.50
2022-12-22T22:56:19.192Z,2.40
2022-12-22T22:58:45.850Z,4.05
2022-12-22T23:01:12.551Z,1.90
2022-12-22T23:03:39.439Z,1.95
2022-12-22T23:06:08.586Z,2.47
2022-12-22T23:08:36.246Z,2.97
2022-12-22T23:11:04.358Z,2.28
2022-12-22T23:13:31.275Z,2.60
2022-12-22T23:16:00.554Z,2.50
2022-12-22T23:18:28.763Z,3.25
2022-12-22T23:21:00.222Z,2.10
2022-12-22T23:23:27.234Z,2.28
2022-12-22T23:25:53.995Z,2.33
2022-12-22T23:28:21.000Z,2.50
2022-12-22T23:30:50.750Z,3.05
2022-12-22T23:33:18.263Z,2.95
2022-12-22T23:35:47.932Z,1.85
2022-12-22T23:38:15.879Z,2.13
2022-12-22T23:40:52.363Z,2.85
2022-12-22T23:43:20.521Z,1.98
2022-12-22T23:45:47.247Z,2.05
2022-12-22T23:48:13.902Z,2.17
2022-12-22T23:50:40.594Z,2.05
2022-12-22T23:53:07.346Z,2.20
2022-12-22T23:55:34.011Z,2.38
2022-12-22T23:58:00.655Z,2.15
